Little Rock Air Force Base
KLRF : now visible

Airfield :











YOU CAN JOIN US ON...

 
LOGIN :

Register | Disclaimer

   EN    FR    IT 

 









Legend :    VFR   Marginal VFR   IFR   Intensive IFR   Very Intensive IFR
Visi :
Ceiling :
>= 8 km
>= 3000ft
5 to 8 km
1000 to 3000 ft
1500m to 5 km
500 to 1000 ft
800 to 1500m
200 to 500 ft
< 800m
< 200 ft
Symbols :   Thunderstorms  Fog  Heavy snow  Heavy precipitations  Wind > 20 kt






- Airport Elevation : 311 ft


KLRF - Little Rock Air Force Base

CURRENT METAR :
  • 090056Z AUTO 00000KT 10SM CLR 30/24 A2987 RMK AO2 SLP115 T02970243

EXPIRED METARs :
  • 082356Z AUTO 10005KT 10SM CLR 31/24 A2986 RMK AO2 SLP111 T03130236 10326 20290 57009
  • 082256Z AUTO 09004KT 10SM CLR 32/23 A2987 RMK AO2 SLP115 T03220234

TAF TAF KLRF
Valid from the 08 at 23:00 until the 10 at 05:00 UTC


082300Z 0823/1005 12005KT 9999 FEW050 SCT100 QNH2983INS
BECMG 0905/0906 16005KT 9999 SCT035 BKN045 QNH2985INS
BECMG 0911/0912 19005KT 9999 SCT015 BKN030 QNH2987INS
BECMG 0916/0917 21009KT 9000 -SHRA VCTS BKN030CB QNH2989INS
TEMPO 0917/0921 24015G25KT 4800 TSRA OVC030CB
BECMG 0920/0921 25005KT 9999 NSW SCT020 SCT200 QNH2980INS
BECMG 1001/1002 10005KT 9999 SCT030 BKN060 QNH2981INS TX35/0922Z TN24/0911Z
KZME FIR / North America



MET'MAP, your aeronautical weather chart ! - Copyright ORBIFLY December 2007 - Disclaimer

ORBIFLY MET'MAP TEAM :

Programming & Development : Alexandra Zaïnal
Concept & original design : Baudouin d'Aumeries
Assistance for programming : Marc-Olivier Méhu
Technical & hardware support : Manuel Goepfert

Contact : metmap@orbifly.com




SOURCES & CREDITS :

   NOAA       Earth
Advisory